createdAt,value
2019-01-18T00:00:52.395Z,1.60
2019-01-18T00:02:56.472Z,1.50
2019-01-18T00:05:00.207Z,1.50
2019-01-18T00:07:04.660Z,1.50
2019-01-18T00:09:09.071Z,1.40
2019-01-18T00:11:12.784Z,1.40
2019-01-18T00:13:16.402Z,1.40
2019-01-18T00:15:20.293Z,1.40
2019-01-18T00:17:24.004Z,1.40
2019-01-18T00:19:27.708Z,1.40
2019-01-18T00:21:31.793Z,1.40
2019-01-18T00:23:35.561Z,1.30
2019-01-18T00:25:39.292Z,1.30
2019-01-18T00:27:42.998Z,1.20
2019-01-18T00:29:46.762Z,1.20
2019-01-18T00:31:50.536Z,1.20
2019-01-18T00:33:54.191Z,1.20
2019-01-18T00:35:57.892Z,1.10
2019-01-18T00:38:01.633Z,1.20
2019-01-18T00:40:08.335Z,1.30
2019-01-18T00:42:11.916Z,1.30
2019-01-18T00:44:15.664Z,1.30
2019-01-18T00:46:19.385Z,1.30
2019-01-18T00:48:23.104Z,1.30
2019-01-18T00:50:26.710Z,1.30
2019-01-18T00:52:30.533Z,1.30
2019-01-18T00:54:34.297Z,1.40
2019-01-18T00:56:38.196Z,1.40
2019-01-18T00:58:42.320Z,1.30
2019-01-18T01:00:46.190Z,1.40
2019-01-18T01:02:50.251Z,1.30
2019-01-18T01:04:54.118Z,1.30
2019-01-18T01:06:58.361Z,1.30
2019-01-18T01:09:02.135Z,1.30
2019-01-18T01:11:06.134Z,1.30
2019-01-18T01:13:10.085Z,1.30
2019-01-18T01:15:17.862Z,1.40
2019-01-18T01:17:21.912Z,1.40
2019-01-18T01:19:25.650Z,1.40
2019-01-18T01:21:29.618Z,1.30
2019-01-18T01:23:33.529Z,1.20
2019-01-18T01:25:37.348Z,1.30
2019-01-18T01:27:41.275Z,1.20
2019-01-18T01:29:44.905Z,1.20
2019-01-18T01:31:48.701Z,1.20
2019-01-18T01:33:52.279Z,1.10
2019-01-18T01:35:56.089Z,1.10
2019-01-18T01:37:59.815Z,1.10
2019-01-18T01:40:04.885Z,1.10
2019-01-18T01:42:08.891Z,1.10
2019-01-18T01:44:12.711Z,1.10
2019-01-18T01:46:16.516Z,1.10
2019-01-18T01:48:20.203Z,1.10
2019-01-18T01:50:25.409Z,1.10
2019-01-18T01:52:29.139Z,1.10
2019-01-18T01:54:33.981Z,1.00
2019-01-18T01:56:38.198Z,1.10
2019-01-18T01:58:41.816Z,1.10
2019-01-18T02:00:45.457Z,1.10
2019-01-18T02:02:49.212Z,1.10
2019-01-18T02:04:52.787Z,1.20
2019-01-18T02:06:56.469Z,1.20
2019-01-18T02:09:00.284Z,1.20
2019-01-18T02:11:04.107Z,1.20
2019-01-18T02:13:07.789Z,1.10
2019-01-18T02:15:14.342Z,1.10
2019-01-18T02:17:18.114Z,1.10
2019-01-18T02:19:21.855Z,1.10
2019-01-18T02:21:25.553Z,1.20
2019-01-18T02:23:29.242Z,1.10
2019-01-18T02:25:33.465Z,1.10
2019-01-18T02:27:37.585Z,1.10
2019-01-18T02:29:41.313Z,1.10
2019-01-18T02:31:44.985Z,1.10
2019-01-18T02:33:48.589Z,1.10
2019-01-18T02:35:52.241Z,1.10
2019-01-18T02:37:55.924Z,1.10
2019-01-18T02:39:59.578Z,1.10
2019-01-18T02:42:04.808Z,1.20
2019-01-18T02:44:08.521Z,1.20
2019-01-18T02:46:12.164Z,1.10
2019-01-18T02:48:15.848Z,1.10
2019-01-18T02:50:20.189Z,1.00
2019-01-18T02:52:23.861Z,1.00
2019-01-18T02:54:27.523Z,1.10
2019-01-18T02:56:31.177Z,1.20
2019-01-18T02:58:34.793Z,1.20
2019-01-18T03:00:38.581Z,1.10
2019-01-18T03:02:42.329Z,1.10
2019-01-18T03:04:45.989Z,1.10
2019-01-18T03:06:49.645Z,1.10
2019-01-18T03:08:53.349Z,1.10
2019-01-18T03:10:57.148Z,1.10
2019-01-18T03:13:00.825Z,1.10
2019-01-18T03:15:06.380Z,1.10
2019-01-18T03:17:10.023Z,1.10
2019-01-18T03:19:13.751Z,1.10
2019-01-18T03:21:17.528Z,1.10
2019-01-18T03:23:21.309Z,1.20
2019-01-18T03:25:26.416Z,1.20
2019-01-18T03:27:30.005Z,1.10
2019-01-18T03:29:33.682Z,1.10
2019-01-18T03:31:37.283Z,1.10
2019-01-18T03:33:41.027Z,1.10
2019-01-18T03:35:44.756Z,1.10
2019-01-18T03:37:48.529Z,1.00
2019-01-18T03:39:52.304Z,0.90
2019-01-18T03:41:55.969Z,0.90
2019-01-18T03:43:59.638Z,0.90
2019-01-18T03:46:07.444Z,0.90
2019-01-18T03:48:08.737Z,0.90
2019-01-18T03:50:18.529Z,1.00
2019-01-18T03:52:22.194Z,1.00
2019-01-18T03:54:27.892Z,1.00
2019-01-18T03:56:31.336Z,1.00
2019-01-18T03:58:34.997Z,0.90
2019-01-18T04:00:38.761Z,0.90
2019-01-18T04:02:42.473Z,0.90
2019-01-18T04:04:47.669Z,0.90
2019-01-18T04:06:51.400Z,0.90
2019-01-18T04:08:55.299Z,0.80
2019-01-18T04:10:58.956Z,0.90
2019-01-18T04:13:02.597Z,0.80
2019-01-18T04:15:09.659Z,0.80
2019-01-18T04:17:13.280Z,0.80
2019-01-18T04:19:16.939Z,0.80
2019-01-18T04:21:20.713Z,0.80
2019-01-18T04:23:24.310Z,0.80
2019-01-18T04:25:29.666Z,0.80
2019-01-18T04:27:33.442Z,0.80
2019-01-18T04:29:37.038Z,0.80
2019-01-18T04:31:40.687Z,0.80
2019-01-18T04:33:44.461Z,0.80
2019-01-18T04:35:48.198Z,0.80
2019-01-18T04:37:51.847Z,0.80
2019-01-18T04:39:55.544Z,0.70
2019-01-18T04:41:59.288Z,0.70
2019-01-18T04:44:02.919Z,0.70
2019-01-18T04:46:06.675Z,0.70
2019-01-18T04:48:10.411Z,0.70
2019-01-18T04:50:19.020Z,0.70
2019-01-18T04:52:22.652Z,0.60
2019-01-18T04:54:26.377Z,0.70
2019-01-18T04:56:30.009Z,0.70
2019-01-18T04:58:33.664Z,0.60
2019-01-18T05:00:41.090Z,0.60
2019-01-18T05:02:42.744Z,0.60
2019-01-18T05:04:46.449Z,0.70
2019-01-18T05:06:50.027Z,0.70
2019-01-18T05:08:53.627Z,0.70
2019-01-18T05:10:57.356Z,0.60
2019-01-18T05:13:01.162Z,0.60
2019-01-18T05:15:11.178Z,0.60
2019-01-18T05:17:15.007Z,0.60
2019-01-18T05:19:18.800Z,0.60
2019-01-18T05:21:22.503Z,0.60
2019-01-18T05:23:26.185Z,0.50
2019-01-18T05:25:29.922Z,0.50
2019-01-18T05:27:33.563Z,0.50
2019-01-18T05:29:37.174Z,0.50
2019-01-18T05:31:40.868Z,0.50
2019-01-18T05:33:44.611Z,0.50
2019-01-18T05:35:48.257Z,0.40
2019-01-18T05:37:52.115Z,0.50
2019-01-18T05:39:55.706Z,0.40
2019-01-18T05:41:59.501Z,0.50
2019-01-18T05:44:03.291Z,0.50
2019-01-18T05:46:06.869Z,0.50
2019-01-18T05:48:10.558Z,0.60
2019-01-18T05:50:16.745Z,0.60
2019-01-18T05:52:20.471Z,0.70
2019-01-18T05:54:24.196Z,0.70
2019-01-18T05:56:27.900Z,0.70
2019-01-18T05:58:34.646Z,0.70
2019-01-18T06:00:39.997Z,0.70
2019-01-18T06:02:43.583Z,0.70
2019-01-18T06:04:48.443Z,0.70
2019-01-18T06:06:52.093Z,0.70
2019-01-18T06:08:55.737Z,0.70
2019-01-18T06:10:59.405Z,0.70
2019-01-18T06:13:03.047Z,0.70
2019-01-18T06:15:08.399Z,0.70
2019-01-18T06:17:12.103Z,0.70
2019-01-18T06:19:15.891Z,0.70
2019-01-18T06:21:19.752Z,0.70
2019-01-18T06:23:23.440Z,0.70
2019-01-18T06:25:27.459Z,0.80
2019-01-18T06:27:31.308Z,0.80
2019-01-18T06:29:35.120Z,0.70
2019-01-18T06:31:38.952Z,0.80
2019-01-18T06:33:42.664Z,0.80
2019-01-18T06:35:46.512Z,0.80
2019-01-18T06:37:50.230Z,0.80
2019-01-18T06:39:53.939Z,0.80
2019-01-18T06:41:57.846Z,0.70
2019-01-18T06:44:02.018Z,0.80
2019-01-18T06:46:05.891Z,0.80
2019-01-18T06:48:11.289Z,0.80
2019-01-18T06:50:16.961Z,0.70
2019-01-18T06:52:20.816Z,0.80
2019-01-18T06:54:24.499Z,0.70
2019-01-18T06:56:28.372Z,0.70
2019-01-18T06:58:32.194Z,0.70
2019-01-18T07:00:36.175Z,0.60
2019-01-18T07:02:39.980Z,0.60
2019-01-18T07:04:43.715Z,0.60
2019-01-18T07:06:47.496Z,0.60
2019-01-18T07:08:51.351Z,0.60
2019-01-18T07:10:55.297Z,0.60
2019-01-18T07:13:00.026Z,0.60
2019-01-18T07:15:05.081Z,0.60
2019-01-18T07:17:08.948Z,0.60
2019-01-18T07:19:12.783Z,0.50
2019-01-18T07:21:16.655Z,0.50
2019-01-18T07:23:20.433Z,0.50
2019-01-18T07:25:26.759Z,0.50
2019-01-18T07:27:30.651Z,0.50
2019-01-18T07:29:34.542Z,0.50
2019-01-18T07:31:38.505Z,0.50
2019-01-18T07:33:42.517Z,0.40
2019-01-18T07:35:46.372Z,0.50
2019-01-18T07:37:50.225Z,0.50
2019-01-18T07:39:53.979Z,0.50
2019-01-18T07:41:57.912Z,0.50
2019-01-18T07:44:01.781Z,0.50
2019-01-18T07:46:05.762Z,0.50
2019-01-18T07:48:09.609Z,0.50
2019-01-18T07:50:19.751Z,0.50
2019-01-18T07:52:19.616Z,0.50
2019-01-18T07:54:23.457Z,0.50
2019-01-18T07:56:27.317Z,0.50
2019-01-18T07:58:31.069Z,0.60
2019-01-18T08:00:35.024Z,0.60
2019-01-18T08:02:38.930Z,0.60
2019-01-18T08:04:42.760Z,0.60
2019-01-18T08:06:46.689Z,0.60
2019-01-18T08:08:50.541Z,0.60
2019-01-18T08:10:54.414Z,0.60
2019-01-18T08:12:59.000Z,0.60
2019-01-18T08:15:02.984Z,0.60
2019-01-18T08:17:06.930Z,0.70
2019-01-18T08:19:11.079Z,0.70
2019-01-18T08:21:14.975Z,0.80
2019-01-18T08:23:18.824Z,0.80
2019-01-18T08:25:22.785Z,0.80
2019-01-18T08:27:26.725Z,0.80
2019-01-18T08:29:30.602Z,0.80
2019-01-18T08:31:34.457Z,0.80
2019-01-18T08:33:38.332Z,0.90
2019-01-18T08:35:42.131Z,0.90
2019-01-18T08:37:46.038Z,0.90
2019-01-18T08:39:49.857Z,1.00
2019-01-18T08:41:54.335Z,1.00
2019-01-18T08:43:58.142Z,1.10
2019-01-18T08:46:01.987Z,1.50
2019-01-18T08:48:06.950Z,2.00
2019-01-18T08:50:16.447Z,2.30
2019-01-18T08:52:21.314Z,2.50
2019-01-18T08:54:26.617Z,2.50
2019-01-18T08:56:30.503Z,2.50
2019-01-18T08:58:35.805Z,2.40
2019-01-18T09:00:39.657Z,2.50
2019-01-18T09:02:43.464Z,2.90
2019-01-18T09:04:47.328Z,3.40
2019-01-18T09:06:51.184Z,3.50
2019-01-18T09:08:55.073Z,3.60
2019-01-18T09:10:58.903Z,3.70
2019-01-18T09:13:04.073Z,3.90
2019-01-18T09:15:10.317Z,4.10
2019-01-18T09:17:14.134Z,4.20
2019-01-18T09:19:18.033Z,4.10
2019-01-18T09:21:21.941Z,4.00
2019-01-18T09:23:25.814Z,3.80
2019-01-18T09:25:29.783Z,3.70
2019-01-18T09:27:33.576Z,3.50
2019-01-18T09:29:37.536Z,3.30
2019-01-18T09:31:42.578Z,3.10
2019-01-18T09:33:46.638Z,3.10
2019-01-18T09:35:50.600Z,3.00
2019-01-18T09:37:55.889Z,3.00
2019-01-18T09:39:59.743Z,3.00
2019-01-18T09:42:03.527Z,3.00
2019-01-18T09:44:07.398Z,3.00
2019-01-18T09:46:11.253Z,3.00
2019-01-18T09:48:15.269Z,3.00
2019-01-18T09:50:24.333Z,3.00
2019-01-18T09:52:28.819Z,2.90
2019-01-18T09:54:32.694Z,3.00
2019-01-18T09:56:36.567Z,3.10
2019-01-18T09:58:42.695Z,3.00
2019-01-18T10:00:46.596Z,3.10
2019-01-18T10:02:52.048Z,3.30
2019-01-18T10:04:55.953Z,4.00
2019-01-18T10:06:59.861Z,4.90
2019-01-18T10:09:06.439Z,6.00
2019-01-18T10:11:10.360Z,6.90
2019-01-18T10:13:14.220Z,7.60
2019-01-18T10:15:26.886Z,7.60
2019-01-18T10:17:30.843Z,6.90
2019-01-18T10:19:34.664Z,6.20
2019-01-18T10:21:40.436Z,5.60
2019-01-18T10:23:45.820Z,5.20
2019-01-18T10:25:49.727Z,4.60
2019-01-18T10:27:53.689Z,4.20
2019-01-18T10:29:59.284Z,3.80
2019-01-18T10:32:03.225Z,3.60
2019-01-18T10:34:08.063Z,3.50
2019-01-18T10:36:11.976Z,3.40
2019-01-18T10:38:15.845Z,3.90
2019-01-18T10:40:21.605Z,4.80
2019-01-18T10:42:25.491Z,6.00
2019-01-18T10:44:29.329Z,7.30
2019-01-18T10:46:33.277Z,8.30
2019-01-18T10:48:37.086Z,9.30
2019-01-18T10:50:40.958Z,10.10
2019-01-18T10:52:45.101Z,10.30
2019-01-18T10:54:48.881Z,9.80
2019-01-18T10:56:52.770Z,9.00
2019-01-18T10:58:56.662Z,8.20
2019-01-18T11:01:00.556Z,7.50
2019-01-18T11:03:04.687Z,6.70
2019-01-18T11:05:11.815Z,6.10
2019-01-18T11:07:15.617Z,5.60
2019-01-18T11:09:19.451Z,5.20
2019-01-18T11:11:23.277Z,4.90
2019-01-18T11:13:27.106Z,4.50
2019-01-18T11:15:30.936Z,4.30
2019-01-18T11:17:34.874Z,4.10
2019-01-18T11:19:38.934Z,4.00
2019-01-18T11:21:42.975Z,3.90
2019-01-18T11:23:46.986Z,3.80
2019-01-18T11:25:52.097Z,3.80
2019-01-18T11:27:56.033Z,3.80
2019-01-18T11:30:00.245Z,3.70
2019-01-18T11:32:04.453Z,3.70
2019-01-18T11:34:08.483Z,3.60
2019-01-18T11:36:12.388Z,3.50
2019-01-18T11:38:16.210Z,3.50
2019-01-18T11:40:22.822Z,3.40
2019-01-18T11:42:26.981Z,3.30
2019-01-18T11:44:31.948Z,3.30
2019-01-18T11:46:35.813Z,3.30
2019-01-18T11:48:40.487Z,3.30
2019-01-18T11:50:44.317Z,3.20
2019-01-18T11:52:48.250Z,3.20
2019-01-18T11:54:52.322Z,3.20
2019-01-18T11:56:57.129Z,3.20
2019-01-18T11:59:01.083Z,3.20
2019-01-18T12:01:05.234Z,3.20
2019-01-18T12:03:09.123Z,3.20
2019-01-18T12:05:13.281Z,3.20
2019-01-18T12:07:17.192Z,3.20
2019-01-18T12:09:21.055Z,3.10
2019-01-18T12:11:24.984Z,3.10
2019-01-18T12:13:29.003Z,3.10
2019-01-18T12:15:32.748Z,3.10
2019-01-18T12:17:36.680Z,3.00
2019-01-18T12:19:40.361Z,3.00
2019-01-18T12:21:44.084Z,3.00
2019-01-18T12:23:47.789Z,3.00
2019-01-18T12:25:51.476Z,3.00
2019-01-18T12:27:55.200Z,3.00
2019-01-18T12:29:58.991Z,3.00
2019-01-18T12:32:02.725Z,3.00
2019-01-18T12:34:06.416Z,3.00
2019-01-18T12:36:10.139Z,3.00
2019-01-18T12:38:14.043Z,3.00
2019-01-18T12:40:17.722Z,3.00
2019-01-18T12:42:22.007Z,3.10
2019-01-18T12:44:25.596Z,3.10
2019-01-18T12:46:29.311Z,3.10
2019-01-18T12:48:33.598Z,3.10
2019-01-18T12:50:37.506Z,3.10
2019-01-18T12:52:41.743Z,3.10
2019-01-18T12:54:45.541Z,3.10
2019-01-18T12:56:49.244Z,3.10
2019-01-18T12:58:56.483Z,3.20
2019-01-18T13:00:58.406Z,3.20
2019-01-18T13:03:02.152Z,3.20
2019-01-18T13:05:08.855Z,3.30
2019-01-18T13:07:12.591Z,3.30
2019-01-18T13:09:18.294Z,3.40
2019-01-18T13:11:21.991Z,3.50
2019-01-18T13:13:25.710Z,3.50
2019-01-18T13:15:41.105Z,3.50
2019-01-18T13:17:44.673Z,3.80
2019-01-18T13:19:48.329Z,4.50
2019-01-18T13:21:52.121Z,5.20
2019-01-18T13:23:55.904Z,5.50
2019-01-18T13:26:01.093Z,5.50
2019-01-18T13:28:04.906Z,5.40
2019-01-18T13:30:11.660Z,5.30
2019-01-18T13:32:15.413Z,5.20
2019-01-18T13:34:19.162Z,5.10
2019-01-18T13:36:23.156Z,5.00
2019-01-18T13:38:26.911Z,4.80
2019-01-18T13:40:30.858Z,4.70
2019-01-18T13:42:34.456Z,4.70
2019-01-18T13:44:43.595Z,4.60
2019-01-18T13:46:43.899Z,4.50
2019-01-18T13:48:47.573Z,4.50
2019-01-18T13:50:51.454Z,4.50
2019-01-18T13:52:55.291Z,4.50
2019-01-18T13:54:59.135Z,4.60
2019-01-18T13:57:02.852Z,4.90
2019-01-18T13:59:08.120Z,5.30
2019-01-18T14:01:11.848Z,5.70
2019-01-18T14:03:15.588Z,6.20
2019-01-18T14:05:19.293Z,6.60
2019-01-18T14:07:23.097Z,7.10
2019-01-18T14:09:26.709Z,7.30
2019-01-18T14:11:30.499Z,7.50
2019-01-18T14:13:37.497Z,7.70
2019-01-18T14:15:40.084Z,7.80
2019-01-18T14:17:43.877Z,8.00
2019-01-18T14:19:47.536Z,8.20
2019-01-18T14:21:51.286Z,8.30
2019-01-18T14:23:55.594Z,8.40
2019-01-18T14:25:59.434Z,8.40
2019-01-18T14:28:03.152Z,8.50
2019-01-18T14:30:09.820Z,8.50
2019-01-18T14:32:14.139Z,8.50
2019-01-18T14:34:17.973Z,8.40
2019-01-18T14:36:21.846Z,8.20
2019-01-18T14:38:25.580Z,8.00
2019-01-18T14:40:29.287Z,7.70
2019-01-18T14:42:32.999Z,7.40
2019-01-18T14:44:36.704Z,7.30
2019-01-18T14:46:40.445Z,7.00
2019-01-18T14:48:44.091Z,6.70
2019-01-18T14:50:47.867Z,6.50
2019-01-18T14:52:51.592Z,6.30
2019-01-18T14:54:55.202Z,6.20
2019-01-18T14:56:58.964Z,6.00
2019-01-18T14:59:02.667Z,5.80
2019-01-18T15:01:06.558Z,5.70
2019-01-18T15:03:10.423Z,5.60
2019-01-18T15:05:14.477Z,5.40
2019-01-18T15:07:18.188Z,5.30
2019-01-18T15:09:22.146Z,5.20
2019-01-18T15:11:25.801Z,5.20
2019-01-18T15:13:30.702Z,5.10
2019-01-18T15:15:34.426Z,5.00
2019-01-18T15:17:38.417Z,4.90
2019-01-18T15:19:42.141Z,4.80
2019-01-18T15:21:45.882Z,4.80
2019-01-18T15:23:49.819Z,4.70
2019-01-18T15:25:53.608Z,4.60
2019-01-18T15:27:58.068Z,4.60
2019-01-18T15:30:02.236Z,4.50
2019-01-18T15:32:06.014Z,4.50
2019-01-18T15:34:09.844Z,4.50
2019-01-18T15:36:14.938Z,4.40
2019-01-18T15:38:18.770Z,4.30
2019-01-18T15:40:24.971Z,4.20
2019-01-18T15:42:28.718Z,4.20
2019-01-18T15:44:32.594Z,4.00
2019-01-18T15:46:36.329Z,3.80
2019-01-18T15:48:40.101Z,3.70
2019-01-18T15:50:43.902Z,3.60
2019-01-18T15:52:47.724Z,3.60
2019-01-18T15:54:51.402Z,3.50
2019-01-18T15:56:56.951Z,3.40
2019-01-18T15:59:00.682Z,3.40
2019-01-18T16:01:04.828Z,3.40
2019-01-18T16:03:15.601Z,3.30
2019-01-18T16:05:14.354Z,3.30
2019-01-18T16:07:17.911Z,3.20
2019-01-18T16:09:21.771Z,3.20
2019-01-18T16:11:25.418Z,3.10
2019-01-18T16:13:29.112Z,3.00
2019-01-18T16:15:50.825Z,3.00
2019-01-18T16:17:54.681Z,2.90
2019-01-18T16:19:58.394Z,2.80
2019-01-18T16:22:02.070Z,2.70
2019-01-18T16:24:06.025Z,2.70
2019-01-18T16:26:09.739Z,2.60
2019-01-18T16:28:13.515Z,2.50
2019-01-18T16:30:19.504Z,2.50
2019-01-18T16:32:23.055Z,2.40
2019-01-18T16:34:26.831Z,2.30
2019-01-18T16:36:30.512Z,2.30
2019-01-18T16:38:34.322Z,2.20
2019-01-18T16:40:38.049Z,2.10
2019-01-18T16:42:42.846Z,2.00
2019-01-18T16:44:46.732Z,2.00
2019-01-18T16:46:50.456Z,2.00
2019-01-18T16:48:54.255Z,1.90
2019-01-18T16:50:58.097Z,1.90
2019-01-18T16:53:01.779Z,1.80
2019-01-18T16:55:08.642Z,1.70
2019-01-18T16:57:12.406Z,1.70
2019-01-18T16:59:16.188Z,1.60
2019-01-18T17:01:20.015Z,1.60
2019-01-18T17:03:30.003Z,1.60
2019-01-18T17:05:30.454Z,1.50
2019-01-18T17:07:34.624Z,1.50
2019-01-18T17:09:38.425Z,1.50
2019-01-18T17:11:42.096Z,1.40
2019-01-18T17:13:45.747Z,1.40
2019-01-18T17:15:49.585Z,1.40
2019-01-18T17:17:54.479Z,1.40
2019-01-18T17:19:58.848Z,1.30
2019-01-18T17:22:02.765Z,1.30
2019-01-18T17:24:06.576Z,1.30
2019-01-18T17:26:10.289Z,1.30
2019-01-18T17:28:14.106Z,1.20
2019-01-18T17:30:19.849Z,1.20
2019-01-18T17:32:23.698Z,1.20
2019-01-18T17:34:28.704Z,1.10
2019-01-18T17:36:33.656Z,1.10
2019-01-18T17:39:07.505Z,1.10
2019-01-18T17:41:32.398Z,1.10
2019-01-18T17:43:42.018Z,1.00
2019-01-18T17:45:54.545Z,1.00
2019-01-18T17:48:10.067Z,1.00
2019-01-18T17:50:22.786Z,1.00
2019-01-18T17:52:35.299Z,1.00
2019-01-18T17:54:47.580Z,0.90
2019-01-18T17:57:06.374Z,0.90
2019-01-18T17:59:22.283Z,0.90
2019-01-18T18:01:37.719Z,0.90
2019-01-18T18:04:02.514Z,0.80
2019-01-18T18:06:43.778Z,0.80
2019-01-18T18:08:50.573Z,0.80
2019-01-18T18:11:00.489Z,0.70
2019-01-18T18:13:19.749Z,0.70
2019-01-18T18:15:45.064Z,0.70
2019-01-18T18:17:57.867Z,0.70
2019-01-18T18:20:13.467Z,0.70
2019-01-18T18:22:39.910Z,0.70
2019-01-18T18:25:00.462Z,0.60
2019-01-18T18:27:27.358Z,0.60
2019-01-18T18:29:49.095Z,0.60
2019-01-18T18:32:07.534Z,0.50
2019-01-18T18:34:24.067Z,0.50
2019-01-18T18:36:49.612Z,0.50
2019-01-18T18:39:02.314Z,0.40
2019-01-18T18:41:21.203Z,0.40
2019-01-18T18:43:29.809Z,0.40
2019-01-18T18:45:36.998Z,0.40
2019-01-18T18:47:58.898Z,0.40
2019-01-18T18:50:17.188Z,0.40
2019-01-18T18:52:32.280Z,0.40
2019-01-18T18:54:49.582Z,0.30
2019-01-18T18:57:12.180Z,0.30
2019-01-18T18:59:30.478Z,0.30
2019-01-18T19:01:53.980Z,0.30
2019-01-18T19:04:15.798Z,0.30
2019-01-18T19:06:47.037Z,0.30
2019-01-18T19:09:11.563Z,0.20
2019-01-18T19:11:21.925Z,0.20
2019-01-18T19:13:30.633Z,0.20
2019-01-18T19:15:48.645Z,0.10
2019-01-18T19:18:13.801Z,0.10
2019-01-18T19:20:37.787Z,0.10
2019-01-18T19:22:47.109Z,0.10
2019-01-18T19:25:10.798Z,0.10
2019-01-18T19:27:27.684Z,0.00
2019-01-18T19:29:41.146Z,0.00
2019-01-18T19:31:54.481Z,0.00
2019-01-18T19:34:04.486Z,0.00
2019-01-18T19:36:29.546Z,-0.10
2019-01-18T19:38:42.476Z,-0.10
2019-01-18T19:40:58.262Z,-0.10
2019-01-18T19:43:13.835Z,-0.10
2019-01-18T19:45:22.994Z,-0.20
2019-01-18T19:47:38.558Z,-0.20
2019-01-18T19:50:07.930Z,-0.20
2019-01-18T19:52:20.280Z,-0.20
2019-01-18T19:54:30.568Z,-0.20
2019-01-18T19:56:42.848Z,-0.30
2019-01-18T19:59:06.158Z,-0.30
2019-01-18T20:01:13.439Z,-0.30
2019-01-18T20:03:20.204Z,-0.30
2019-01-18T20:05:33.773Z,-0.40
2019-01-18T20:07:58.196Z,-0.40
2019-01-18T20:10:34.406Z,-0.40
2019-01-18T20:12:52.673Z,-0.40
2019-01-18T20:15:08.212Z,-0.40
2019-01-18T20:17:20.700Z,-0.40
2019-01-18T20:19:35.930Z,-0.50
2019-01-18T20:21:51.581Z,-0.50
2019-01-18T20:24:03.802Z,-0.50
2019-01-18T20:26:25.517Z,-0.50
2019-01-18T20:28:41.136Z,-0.50
2019-01-18T20:31:22.423Z,-0.60
2019-01-18T20:33:50.555Z,-0.60
2019-01-18T20:36:09.025Z,-0.60
2019-01-18T20:38:37.877Z,-0.60
2019-01-18T20:40:53.382Z,-0.60
2019-01-18T20:43:24.063Z,-0.60
2019-01-18T20:45:36.486Z,-0.70
2019-01-18T20:47:45.813Z,-0.70
2019-01-18T20:49:55.615Z,-0.70
2019-01-18T20:52:19.897Z,-0.70
2019-01-18T20:54:29.557Z,-0.70
2019-01-18T20:56:36.215Z,-0.80
2019-01-18T20:59:00.693Z,-0.80
2019-01-18T21:01:26.484Z,-0.80
2019-01-18T21:03:55.335Z,-0.80
2019-01-18T21:06:18.784Z,-0.80
2019-01-18T21:08:31.002Z,-0.80
2019-01-18T21:10:58.524Z,-0.80
2019-01-18T21:13:07.881Z,-0.80
2019-01-18T21:15:17.284Z,-0.90
2019-01-18T21:17:45.678Z,-0.90
2019-01-18T21:19:58.209Z,-0.90
2019-01-18T21:22:22.923Z,-0.90
2019-01-18T21:24:46.191Z,-0.90
2019-01-18T21:26:53.045Z,-0.90
2019-01-18T21:29:05.211Z,-0.90
2019-01-18T21:31:20.090Z,-1.00
2019-01-18T21:33:32.564Z,-1.00
2019-01-18T21:35:45.020Z,-1.00
2019-01-18T21:38:03.446Z,-1.00
2019-01-18T21:40:18.741Z,-1.10
2019-01-18T21:42:43.261Z,-1.10
2019-01-18T21:45:07.922Z,-1.10
2019-01-18T21:47:20.597Z,-1.10
2019-01-18T21:49:27.296Z,-1.10
2019-01-18T21:51:50.346Z,-1.10
2019-01-18T21:54:15.063Z,-1.10
2019-01-18T21:56:44.151Z,-1.20
2019-01-18T21:59:05.507Z,-1.10
2019-01-18T22:01:30.184Z,-1.20
2019-01-18T22:03:39.757Z,-1.20
2019-01-18T22:05:58.513Z,-1.20
2019-01-18T22:08:17.537Z,-1.20
2019-01-18T22:10:30.783Z,-1.20
2019-01-18T22:12:39.450Z,-1.20
2019-01-18T22:14:51.638Z,-1.20
2019-01-18T22:17:13.641Z,-1.30
2019-01-18T22:19:42.491Z,-1.30
2019-01-18T22:21:51.696Z,-1.30
2019-01-18T22:24:03.973Z,-1.30
2019-01-18T22:26:43.598Z,-1.30
2019-01-18T22:29:02.189Z,-1.30
2019-01-18T22:31:32.181Z,-1.40
2019-01-18T22:33:47.814Z,-1.40
2019-01-18T22:36:09.410Z,-1.40
2019-01-18T22:38:33.956Z,-1.40
2019-01-18T22:40:52.412Z,-1.40
2019-01-18T22:43:15.382Z,-1.40
2019-01-18T22:45:34.120Z,-1.50
2019-01-18T22:47:59.835Z,-1.50
2019-01-18T22:50:23.368Z,-1.50
2019-01-18T22:52:35.476Z,-1.50
2019-01-18T22:54:45.345Z,-1.60
2019-01-18T22:57:14.387Z,-1.60
2019-01-18T22:59:39.003Z,-1.60
2019-01-18T23:02:09.372Z,-1.60
2019-01-18T23:04:16.064Z,-1.60
2019-01-18T23:06:40.766Z,-1.60
2019-01-18T23:09:02.779Z,-1.70
2019-01-18T23:11:11.949Z,-1.70
2019-01-18T23:13:37.062Z,-1.70
2019-01-18T23:15:52.881Z,-1.70
2019-01-18T23:18:18.298Z,-1.70
2019-01-18T23:20:36.791Z,-1.80
2019-01-18T23:23:07.625Z,-1.80
2019-01-18T23:25:29.012Z,-1.80
2019-01-18T23:27:44.476Z,-1.80
2019-01-18T23:29:56.716Z,-1.80
2019-01-18T23:32:18.234Z,-1.80
2019-01-18T23:34:33.730Z,-1.90
2019-01-18T23:37:07.378Z,-1.90
2019-01-18T23:39:26.158Z,-1.90
2019-01-18T23:41:33.534Z,-1.90
2019-01-18T23:43:51.973Z,-1.90
2019-01-18T23:46:01.483Z,-1.90
2019-01-18T23:48:14.761Z,-1.90
2019-01-18T23:50:30.316Z,-1.90
2019-01-18T23:52:48.706Z,-2.00
2019-01-18T23:55:17.688Z,-2.00
2019-01-18T23:57:30.105Z,-2.00
2019-01-18T23:59:39.558Z,-2.00
